Fort Mc Coy, Florida
Current Conditions -  °F | °C
As of 11:15 PM on Sunday 21 Dec 2014 (Local Time) from K28J Reporting Station
Light Rain Light Rain  
Wind Chill: 61°   Ceiling: 200
Heat Index: 61°   Visibility: 2.5mi
Dew Point: 61°   Wind: 0mph
Humidity: 100%   Direction: NA
Pressure: 30.07"   Gusts: NA
Location:  29.3142°N, 81.8267°W
Report Text: K28J 220415Z AUTO 00000KT 2 1/2SM -RA BKN002 BKN028 OVC038 16/16 A3007 RMK AO2 LTG DSNT SW P0009
Loading
Personal Weather Stations






























Interactive Weather Map New forecast layout! Learn more

10-Day Weather Forecast

Advertisements
Track Severe Weather on mobile